Aérodrome :







RETROUVEZ-NOUS SUR...

 
LOGIN :

S'inscrire | Disclaimer

   EN    FR    IT 

 









Légende :    VFR   VFR Marginal   IFR   IFR Intensif   IFR Très Intensif
Visi : 
Plafond : 
>= 8 km
>= 3000ft
5 à 8 km
1000 à 3000 ft
1500m à 5 km
500 à 1000 ft
800 à 1500m
200 à 500 ft
< 800m
< 200 ft
Symboles :   Orages  Brouillard  Fortes neiges  Fortes précipitations  Vent > 20 kt






- Altitude de l'aérodrome : 237 ft
- Code IATA : BQN


TJBQ - Rafael Hernandez

DERNIER METAR :
  • 310050Z 15003KT 10SM CLR A3003

METARs EXPIRÉS :
  • 302350Z 00000KT 10SM CLR A3002
  • 302250Z 15003KT 10SM CLR A3000

TAF TJBQ
Valide du 31 à 00h jusqu'au 01 à 00h UTC


302341Z 3100/3124 13005KT P6SM FEW030
FM311500 06011KT P6SM FEW030
FM311800 08014KT P6SM VCTS SCT025CB SCT040
FM312200 10007KT P6SM FEW025 AMD NOT SKED 3102/3111
FIR TJZS / Amérique du Nord



MET'MAP, la Météo Aéronautique d'un coup d'oeil ! - Copyright ORBIFLY Décembre 2007 - Disclaimer

ORBIFLY MET'MAP TEAM :

Programmation & Développement : Alexandra Zaïnal
Sur une idée originale de : Baudouin d'Aumeries
Assistance à la programmation : Marc-Olivier Méhu
Soutien technique & logistique : Manuel Goepfert

Contact : metmap@orbifly.com




SOURCES & CREDITS :

   NOAA